This is the latest recevied weather packets stored in our database for station/object HS5HBQ-1. If no packets are shown the sender has not sent any weather packets the latest 1 day(s).
| Time | Temp. | Humidity | Pressure | Rain* | Wind** | Luminosity | Snow |
|---|---|---|---|---|---|---|---|
| 1778035408 | 33.89° C | 45% | 975 hPa | - | 0 m/s | 0 W/m² | - |
| 1778034783 | 32.78° C | 48% | 975 hPa | - | 0 m/s | 0 W/m² | - |
| 1778034159 | 32.78° C | 48% | 975 hPa | - | 0 m/s | 0 W/m² | - |
| 1778033535 | 32.78° C | 49% | 975 hPa | - | 0 m/s | 0 W/m² | - |
| 1778032911 | 32.22° C | 51% | 975 hPa | - | 0 m/s | 0 W/m² | - |
| 1778032286 | 32.22° C | 52% | 975 hPa | - | 0 m/s | 0 W/m² | - |
| 1778031662 | 31.67° C | 54% | 975 hPa | - | 0 m/s | 0 W/m² | - |
| 1778031038 | 31.67° C | 53% | 975 hPa | - | 0 m/s | 0 W/m² | - |
| 1778030414 | 32.22° C | 52% | 975 hPa | - | 0 m/s | 0 W/m² | - |
| 1778029790 | 31.67° C | 53% | 975 hPa | - | 0 m/s | 0 W/m² | - |
| 1778029166 | 31.67° C | 54% | 975 hPa | - | 0 m/s | 0 W/m² | - |
| 1778028541 | 32.22° C | 52% | 975 hPa | - | 0 m/s | 0 W/m² | - |
| 1778027917 | 31.67° C | 52% | 975 hPa | - | 0 m/s | 0 W/m² | - |
| 1778027292 | 32.78° C | 51% | 975 hPa | - | 0 m/s | 0 W/m² | - |
| 1778026668 | 32.22° C | 52% | 975 hPa | - | 0 m/s | 0 W/m² | - |
| 1778026044 | 32.78° C | 50% | 975 hPa | - | 0 m/s | 0 W/m² | - |
| 1778025420 | 32.22° C | 51% | 975 hPa | - | 0 m/s | 0 W/m² | - |
| 1778024796 | 31.67° C | 53% | 974 hPa | - | 0 m/s | 0 W/m² | - |
| 1778024172 | 32.22° C | 51% | 974 hPa | - | 0 m/s | 0 W/m² | - |
| 1778023547 | 32.78° C | 50% | 974 hPa | - | 0 m/s | 0 W/m² | - |
| 1778022923 | 32.78° C | 49% | 974 hPa | - | 0 m/s | 0 W/m² | - |
| 1778022299 | 32.78° C | 50% | 974 hPa | - | 0 m/s | 0 W/m² | - |
| 1778021675 | 32.78° C | 49% | 974 hPa | - | 0 m/s | 0 W/m² | - |
| 1778021051 | 33.33° C | 47% | 974 hPa | - | 0 m/s | 0 W/m² | - |
| 1778020426 | 33.33° C | 48% | 974 hPa | - | 0 m/s | 0 W/m² | - |
* Rain since midnight (hover to see other rain measurements)
** Current wind speed in m/s (hover to see current wind gust speed)